createdAt,value
2016-05-15T00:00:20.060Z,6.74
2016-05-15T00:01:20.046Z,6.77
2016-05-15T00:02:19.877Z,6.74
2016-05-15T00:03:20.020Z,6.77
2016-05-15T00:04:20.024Z,6.77
2016-05-15T00:05:20.011Z,6.8
2016-05-15T00:06:19.997Z,6.7
2016-05-15T00:07:20.000Z,6.7
2016-05-15T00:08:20.002Z,6.73
2016-05-15T00:09:19.989Z,6.7
2016-05-15T00:10:19.976Z,6.69
2016-05-15T00:11:19.980Z,6.66
2016-05-15T00:12:19.967Z,6.69
2016-05-15T00:13:19.970Z,6.59
2016-05-15T00:14:19.956Z,6.52
2016-05-15T00:15:19.943Z,6.52
2016-05-15T00:16:21.167Z,6.52
2016-05-15T00:17:19.933Z,6.61
2016-05-15T00:18:19.936Z,6.48
2016-05-15T00:19:20.892Z,6.54
2016-05-15T00:20:19.909Z,6.48
2016-05-15T00:21:33.931Z,6.48
2016-05-15T00:22:19.900Z,6.44
2016-05-15T00:23:19.886Z,6.56
2016-05-15T00:24:19.875Z,6.51
2016-05-15T00:25:20.377Z,6.64
2016-05-15T00:26:20.286Z,6.66
2016-05-15T00:27:21.163Z,6.66
2016-05-15T00:28:19.744Z,6.64
2016-05-15T00:29:19.949Z,6.66
2016-05-15T00:30:20.733Z,6.69
2016-05-15T00:31:20.424Z,6.61
2016-05-15T00:32:19.849Z,6.66
2016-05-15T00:33:20.008Z,6.69
2016-05-15T00:34:20.260Z,6.64
2016-05-15T00:35:19.654Z,6.62
2016-05-15T00:36:19.640Z,6.61
2016-05-15T00:37:19.471Z,6.69
2016-05-15T00:38:19.771Z,6.61
2016-05-15T00:39:19.773Z,6.67
2016-05-15T00:40:19.760Z,6.56
2016-05-15T00:41:19.763Z,6.59
2016-05-15T00:42:19.593Z,6.51
2016-05-15T00:43:19.737Z,6.48
2016-05-15T00:44:19.740Z,6.56
2016-05-15T00:45:19.727Z,6.48
2016-05-15T00:46:19.729Z,6.52
2016-05-15T00:47:19.717Z,6.48
2016-05-15T00:48:19.548Z,6.44
2016-05-15T00:49:19.941Z,6.46
2016-05-15T00:50:19.695Z,6.46
2016-05-15T00:51:19.681Z,6.54
2016-05-15T00:52:19.684Z,6.51
2016-05-15T00:53:19.670Z,6.54
2016-05-15T00:54:19.501Z,6.59
2016-05-15T00:55:19.503Z,6.66
2016-05-15T00:56:19.663Z,6.7
2016-05-15T00:57:19.634Z,6.77
2016-05-15T00:58:19.481Z,6.84
2016-05-15T00:59:19.639Z,6.76
2016-05-15T01:00:19.627Z,6.89
2016-05-15T01:01:19.614Z,6.81
2016-05-15T01:02:19.460Z,6.95
2016-05-15T01:03:45.528Z,7.02
2016-05-15T01:04:19.450Z,6.97
2016-05-15T01:05:19.594Z,7.12
2016-05-15T01:06:19.596Z,7.1
2016-05-15T01:07:19.427Z,7.05
2016-05-15T01:08:19.571Z,7.15
2016-05-15T01:09:19.557Z,7.07
2016-05-15T01:10:19.404Z,7.17
2016-05-15T01:11:19.547Z,7.15
2016-05-15T01:12:19.550Z,7.25
2016-05-15T01:13:19.537Z,7.2
2016-05-15T01:14:19.368Z,7.27
2016-05-15T01:15:19.526Z,7.28
2016-05-15T01:16:19.514Z,7.32
2016-05-15T01:17:19.517Z,7.31
2016-05-15T01:18:19.519Z,7.27
2016-05-15T01:19:19.459Z,7.3
2016-05-15T01:20:19.509Z,7.31
2016-05-15T01:21:19.495Z,7.24
2016-05-15T01:22:19.484Z,7.27
2016-05-15T01:23:19.470Z,7.27
2016-05-15T01:24:19.473Z,7.27
2016-05-15T01:25:19.459Z,7.31
2016-05-15T01:26:19.462Z,7.3
2016-05-15T01:27:19.450Z,7.25
2016-05-15T01:28:19.436Z,7.37
2016-05-15T01:29:19.424Z,7.37
2016-05-15T01:30:19.130Z,7.4
2016-05-15T01:31:19.257Z,7.53
2016-05-15T01:32:19.088Z,7.48
2016-05-15T01:33:19.419Z,7.49
2016-05-15T01:34:21.109Z,7.58
2016-05-15T01:35:19.393Z,7.58
2016-05-15T01:36:19.380Z,7.67
2016-05-15T01:37:19.383Z,7.61
2016-05-15T01:38:19.510Z,7.75
2016-05-15T01:39:19.888Z,7.75
2016-05-15T01:40:33.534Z,7.75
2016-05-15T01:41:19.456Z,7.74
2016-05-15T01:42:21.568Z,7.77
2016-05-15T01:43:21.382Z,7.82
2016-05-15T01:44:20.464Z,7.8
2016-05-15T01:45:19.232Z,7.85
2016-05-15T01:46:20.047Z,7.86
2016-05-15T01:47:19.800Z,7.97
2016-05-15T01:48:19.615Z,7.89
2016-05-15T01:49:33.371Z,7.93
2016-05-15T01:50:19.293Z,7.92
2016-05-15T01:51:19.983Z,7.97
2016-05-15T01:52:19.970Z,8
2016-05-15T01:53:19.566Z,8.05
2016-05-15T01:54:19.273Z,8.01
2016-05-15T01:55:19.103Z,7.98
2016-05-15T01:56:19.247Z,8.02
2016-05-15T01:57:19.249Z,8.02
2016-05-15T01:58:19.236Z,8.02
2016-05-15T01:59:19.223Z,8.02
2016-05-15T02:00:19.225Z,8.15
2016-05-15T02:01:19.213Z,8.16
2016-05-15T02:02:19.216Z,8.04
2016-05-15T02:03:19.203Z,8.12
2016-05-15T02:04:19.205Z,8.04
2016-05-15T02:05:19.036Z,8.19
2016-05-15T02:06:19.194Z,8.11
2016-05-15T02:07:19.182Z,8.15
2016-05-15T02:08:19.185Z,8.15
2016-05-15T02:09:19.156Z,8.05
2016-05-15T02:10:19.160Z,8.16
2016-05-15T02:11:19.146Z,8.12
2016-05-15T02:12:19.165Z,8.2
2016-05-15T02:13:18.995Z,8.04
2016-05-15T02:14:18.983Z,8.12
2016-05-15T02:15:19.126Z,8.04
2016-05-15T02:16:19.128Z,8.18
2016-05-15T02:17:19.132Z,8.16
2016-05-15T02:18:19.118Z,8.22
2016-05-15T02:19:19.276Z,8.29
2016-05-15T02:20:19.093Z,8.28
2016-05-15T02:21:18.954Z,8.2
2016-05-15T02:22:19.082Z,8.28
2016-05-15T02:23:19.084Z,8.23
2016-05-15T02:24:19.072Z,8.25
2016-05-15T02:25:19.075Z,8.23
2016-05-15T02:26:19.061Z,8.2
2016-05-15T02:27:19.048Z,8.26
2016-05-15T02:28:18.911Z,8.19
2016-05-15T02:29:18.898Z,8.1
2016-05-15T02:30:19.041Z,8.19
2016-05-15T02:31:18.872Z,8.11
2016-05-15T02:32:18.874Z,8.26
2016-05-15T02:33:18.862Z,8.15
2016-05-15T02:34:18.880Z,8.1
2016-05-15T02:35:19.007Z,8.12
2016-05-15T02:36:19.010Z,8.29
2016-05-15T02:37:18.841Z,8.28
2016-05-15T02:38:19.000Z,8.2
2016-05-15T02:39:18.987Z,8.23
2016-05-15T02:40:18.990Z,8.29
2016-05-15T02:41:18.961Z,8.28
2016-05-15T02:42:18.979Z,8.26
2016-05-15T02:43:18.966Z,8.36
2016-05-15T02:44:18.954Z,8.36
2016-05-15T02:45:18.957Z,8.28
2016-05-15T02:46:18.943Z,8.29
2016-05-15T02:47:18.930Z,8.33
2016-05-15T02:48:18.932Z,8.3
2016-05-15T02:49:19.092Z,8.28
2016-05-15T02:50:18.923Z,8.34
2016-05-15T02:51:18.753Z,8.3
2016-05-15T02:53:19.181Z,8.36
2016-05-15T02:54:19.230Z,8.34
2016-05-15T02:55:18.889Z,8.37
2016-05-15T02:56:19.814Z,8.34
2016-05-15T02:57:18.707Z,8.37
2016-05-15T02:58:19.366Z,8.34
2016-05-15T02:59:19.167Z,8.48
2016-05-15T03:00:18.700Z,8.48
2016-05-15T03:01:20.639Z,8.43
2016-05-15T03:02:19.970Z,8.43
2016-05-15T03:03:20.895Z,8.48
2016-05-15T03:04:19.194Z,8.41
2016-05-15T03:05:18.900Z,8.53
2016-05-15T03:06:18.669Z,8.36
2016-05-15T03:07:19.266Z,8.38
2016-05-15T03:08:19.205Z,8.47
2016-05-15T03:09:32.852Z,8.34
2016-05-15T03:10:33.823Z,8.33
2016-05-15T03:11:19.385Z,8.37
2016-05-15T03:12:18.779Z,8.37
2016-05-15T03:13:18.829Z,8.5
2016-05-15T03:14:18.769Z,8.5
2016-05-15T03:15:18.771Z,8.44
2016-05-15T03:16:18.758Z,8.44
2016-05-15T03:17:18.590Z,8.45
2016-05-15T03:18:18.748Z,8.37
2016-05-15T03:19:18.595Z,8.45
2016-05-15T03:20:18.737Z,8.45
2016-05-15T03:21:18.569Z,8.38
2016-05-15T03:22:18.728Z,8.43
2016-05-15T03:23:18.401Z,8.36
2016-05-15T03:24:18.718Z,8.43
2016-05-15T03:25:18.704Z,8.41
2016-05-15T03:26:18.550Z,8.47
2016-05-15T03:27:18.695Z,8.43
2016-05-15T03:28:18.681Z,8.48
2016-05-15T03:29:18.684Z,8.4
2016-05-15T03:30:18.670Z,8.5
2016-05-15T03:31:18.673Z,8.45
2016-05-15T03:32:18.505Z,8.4
2016-05-15T03:33:18.663Z,8.3
2016-05-15T03:34:18.510Z,8.33
2016-05-15T03:35:18.497Z,8.34
2016-05-15T03:36:18.656Z,8.36
2016-05-15T03:37:18.627Z,8.36
2016-05-15T03:38:18.630Z,8.26
2016-05-15T03:39:18.617Z,8.33
2016-05-15T03:40:18.619Z,8.33
2016-05-15T03:41:18.607Z,8.26
2016-05-15T03:42:18.610Z,8.29
2016-05-15T03:43:18.441Z,8.16
2016-05-15T03:44:18.583Z,8.1
2016-05-15T03:45:18.429Z,8.19
2016-05-15T03:46:18.574Z,8.16
2016-05-15T03:47:18.404Z,8.18
2016-05-15T03:48:18.562Z,8.12
2016-05-15T03:49:18.566Z,8
2016-05-15T03:50:18.554Z,8.12
2016-05-15T03:51:18.540Z,7.98
2016-05-15T03:52:18.386Z,8.02
2016-05-15T03:53:18.530Z,7.97
2016-05-15T03:54:18.360Z,8.04
2016-05-15T03:55:18.519Z,8.02
2016-05-15T03:56:18.523Z,8.04
2016-05-15T03:57:18.509Z,8.07
2016-05-15T03:58:18.496Z,8.01
2016-05-15T03:59:18.483Z,8.11
2016-05-15T04:00:18.486Z,8.22
2016-05-15T04:01:18.333Z,8.11
2016-05-15T04:02:18.475Z,8.16
2016-05-15T04:03:18.463Z,8.11
2016-05-15T04:04:18.466Z,8.19
2016-05-15T04:05:18.453Z,8.11
2016-05-15T04:06:18.455Z,8.02
2016-05-15T04:07:18.286Z,7.97
2016-05-15T04:08:18.289Z,7.98
2016-05-15T04:09:18.432Z,8
2016-05-15T04:10:18.435Z,8.05
2016-05-15T04:11:20.172Z,8.07
2016-05-15T04:12:19.909Z,8.01
2016-05-15T04:13:18.880Z,7.97
2016-05-15T04:14:19.570Z,8.1
2016-05-15T04:15:18.402Z,8.01
2016-05-15T04:16:18.388Z,8.02
2016-05-15T04:17:18.750Z,8.04
2016-05-15T04:18:18.379Z,8.04
2016-05-15T04:19:32.852Z,8.01
2016-05-15T04:20:33.465Z,7.98
2016-05-15T04:22:18.452Z,8.04
2016-05-15T04:23:18.360Z,8.01
2016-05-15T04:24:19.097Z,8.02
2016-05-15T04:25:18.429Z,7.97
2016-05-15T04:26:18.665Z,7.95
2016-05-15T04:27:18.324Z,7.9
2016-05-15T04:28:18.186Z,7.92
2016-05-15T04:29:18.329Z,8
2016-05-15T04:30:18.661Z,8.05
2016-05-15T04:31:32.478Z,8.15
2016-05-15T04:32:18.291Z,8.26
2016-05-15T04:33:18.481Z,8.26
2016-05-15T04:34:18.297Z,8.34
2016-05-15T04:35:18.283Z,8.37
2016-05-15T04:36:18.270Z,8.43
2016-05-15T04:37:17.945Z,8.45
2016-05-15T04:38:18.260Z,8.38
2016-05-15T04:39:18.106Z,8.5
2016-05-15T04:40:18.266Z,8.59
2016-05-15T04:41:18.236Z,8.48
2016-05-15T04:42:18.239Z,8.63
2016-05-15T04:43:18.227Z,8.53
2016-05-15T04:44:18.213Z,8.7
2016-05-15T04:45:18.216Z,8.73
2016-05-15T04:46:18.203Z,8.83
2016-05-15T04:47:18.207Z,8.81
2016-05-15T04:48:18.193Z,8.8
2016-05-15T04:49:18.040Z,8.8
2016-05-15T04:50:18.027Z,8.95
2016-05-15T04:51:18.185Z,8.95
2016-05-15T04:52:18.173Z,8.83
2016-05-15T04:53:18.176Z,8.86
2016-05-15T04:54:18.006Z,8.98
2016-05-15T04:55:18.149Z,8.98
2016-05-15T04:56:18.184Z,9.01
2016-05-15T04:57:18.155Z,9.04
2016-05-15T04:58:17.829Z,9.02
2016-05-15T04:59:18.145Z,9.11
2016-05-15T05:00:18.131Z,9.17
2016-05-15T05:01:18.134Z,9.2
2016-05-15T05:02:18.137Z,9.35
2016-05-15T05:03:18.124Z,9.35
2016-05-15T05:04:18.128Z,9.36
2016-05-15T05:05:17.958Z,9.36
2016-05-15T05:06:18.100Z,9.46
2016-05-15T05:07:18.104Z,9.48
2016-05-15T05:08:17.934Z,9.42
2016-05-15T05:09:18.077Z,9.47
2016-05-15T05:10:18.081Z,9.47
2016-05-15T05:11:18.083Z,9.48
2016-05-15T05:12:18.070Z,9.46
2016-05-15T05:13:18.057Z,9.51
2016-05-15T05:14:18.060Z,9.53
2016-05-15T05:15:18.063Z,9.47
2016-05-15T05:16:17.893Z,9.56
2016-05-15T05:17:18.037Z,9.66
2016-05-15T05:18:17.883Z,9.65
2016-05-15T05:19:18.293Z,9.76
2016-05-15T05:20:18.029Z,9.78
2016-05-15T05:21:17.860Z,9.83
2016-05-15T05:22:18.035Z,9.97
2016-05-15T05:23:17.865Z,9.91
2016-05-15T05:24:18.009Z,9.89
2016-05-15T05:25:17.995Z,9.94
2016-05-15T05:26:17.999Z,9.9
2016-05-15T05:27:17.845Z,9.89
2016-05-15T05:28:17.987Z,9.86
2016-05-15T05:29:18.820Z,9.74
2016-05-15T05:30:18.118Z,9.71
2016-05-15T05:31:17.980Z,9.66
2016-05-15T05:32:18.389Z,9.48
2016-05-15T05:33:18.581Z,9.5
2016-05-15T05:34:18.239Z,9.48
2016-05-15T05:35:17.944Z,9.46
2016-05-15T05:36:18.010Z,9.43
2016-05-15T05:37:19.497Z,9.43
2016-05-15T05:38:17.936Z,9.32
2016-05-15T05:39:17.939Z,9.43
2016-05-15T05:40:18.677Z,9.36
2016-05-15T05:41:18.164Z,9.38
2016-05-15T05:42:18.166Z,9.33
2016-05-15T05:43:18.153Z,9.33
2016-05-15T05:44:17.906Z,9.32
2016-05-15T05:45:17.908Z,9.43
2016-05-15T05:46:17.896Z,9.46
2016-05-15T05:47:19.743Z,9.38
2016-05-15T05:48:18.199Z,9.47
2016-05-15T05:49:18.185Z,9.54
2016-05-15T05:50:18.579Z,9.53
2016-05-15T05:51:17.879Z,9.6
2016-05-15T05:52:17.865Z,9.66
2016-05-15T05:53:17.884Z,9.66
2016-05-15T05:54:17.855Z,9.69
2016-05-15T05:55:17.857Z,9.76
2016-05-15T05:56:17.845Z,10.01
2016-05-15T05:57:17.691Z,10.02
2016-05-15T05:58:17.850Z,10.09
2016-05-15T05:59:17.837Z,10.2
2016-05-15T06:00:17.823Z,10.23
2016-05-15T06:01:17.812Z,10.34
2016-05-15T06:02:17.673Z,10.42
2016-05-15T06:03:17.895Z,10.45
2016-05-15T06:04:18.054Z,10.45
2016-05-15T06:05:17.806Z,10.53
2016-05-15T06:06:17.794Z,10.7
2016-05-15T06:07:17.812Z,11.04
2016-05-15T06:08:17.642Z,11.27
2016-05-15T06:09:17.802Z,11.78
2016-05-15T06:10:17.788Z,12.17
2016-05-15T06:11:17.636Z,12.53
2016-05-15T06:12:17.622Z,12.87
2016-05-15T06:13:17.781Z,13.07
2016-05-15T06:14:17.783Z,13.25
2016-05-15T06:15:17.786Z,13.46
2016-05-15T06:16:17.774Z,13.63
2016-05-15T06:17:17.760Z,13.81
2016-05-15T06:18:17.608Z,13.87
2016-05-15T06:19:18.063Z,14.04
2016-05-15T06:20:17.612Z,14.12
2016-05-15T06:21:17.772Z,14.18
2016-05-15T06:22:17.774Z,14.33
2016-05-15T06:23:17.604Z,14.33
2016-05-15T06:24:17.763Z,14.45
2016-05-15T06:25:17.766Z,14.58
2016-05-15T06:26:17.785Z,14.57
2016-05-15T06:27:17.771Z,14.45
2016-05-15T06:28:17.759Z,14.27
2016-05-15T06:29:17.606Z,14.25
2016-05-15T06:30:17.608Z,14.22
2016-05-15T06:31:17.751Z,14.02
2016-05-15T06:32:17.770Z,14.07
2016-05-15T06:33:17.773Z,14.07
2016-05-15T06:34:18.369Z,14.04
2016-05-15T06:35:17.778Z,14.12
2016-05-15T06:36:17.437Z,13.95
2016-05-15T06:37:17.752Z,13.91
2016-05-15T06:38:17.864Z,13.87
2016-05-15T06:39:17.444Z,13.84
2016-05-15T06:40:17.745Z,13.71
2016-05-15T06:41:17.747Z,13.57
2016-05-15T06:42:17.749Z,13.52
2016-05-15T06:43:17.753Z,13.33
2016-05-15T06:44:17.755Z,13.23
2016-05-15T06:45:17.742Z,13.32
2016-05-15T06:46:17.744Z,13.42
2016-05-15T06:47:17.748Z,13.42
2016-05-15T06:48:20.563Z,13.6
2016-05-15T06:49:19.159Z,13.79
2016-05-15T06:50:17.584Z,14.17
2016-05-15T06:51:17.774Z,14.39
2016-05-15T06:52:17.417Z,14.68
2016-05-15T06:53:17.748Z,15.03
2016-05-15T06:54:17.735Z,15.25
2016-05-15T06:55:17.738Z,15.28
2016-05-15T06:56:17.974Z,15.28
2016-05-15T06:57:17.727Z,15.28
2016-05-15T06:59:18.764Z,15.39
2016-05-15T07:00:17.907Z,15.57
2016-05-15T07:01:18.754Z,15.53
2016-05-15T07:02:17.726Z,15.64
2016-05-15T07:03:17.728Z,15.56
2016-05-15T07:04:31.996Z,15.68
2016-05-15T07:05:19.406Z,15.86
2016-05-15T07:06:17.720Z,15.92
2016-05-15T07:07:18.097Z,16
2016-05-15T07:08:17.867Z,15.96
2016-05-15T07:09:17.744Z,16.09
2016-05-15T07:10:17.747Z,16.34
2016-05-15T07:11:17.733Z,16.58
2016-05-15T07:12:17.737Z,16.71
2016-05-15T07:13:17.739Z,16.78
2016-05-15T07:14:17.741Z,16.81
2016-05-15T07:15:17.745Z,16.89
2016-05-15T07:16:17.747Z,17.07
2016-05-15T07:17:17.735Z,17.08
2016-05-15T07:18:17.738Z,17.15
2016-05-15T07:19:17.818Z,17.07
2016-05-15T07:20:17.743Z,17.01
2016-05-15T07:21:17.745Z,17.03
2016-05-15T07:22:17.763Z,16.86
2016-05-15T07:23:17.766Z,16.89
2016-05-15T07:24:17.754Z,16.75
2016-05-15T07:25:17.756Z,16.6
2016-05-15T07:26:17.759Z,16.49
2016-05-15T07:27:17.777Z,16.39
2016-05-15T07:28:17.764Z,16.27
2016-05-15T07:29:17.751Z,16.34
2016-05-15T07:30:17.770Z,16.43
2016-05-15T07:31:17.773Z,16.61
2016-05-15T07:32:17.775Z,16.89
2016-05-15T07:33:17.762Z,17.14
2016-05-15T07:34:17.812Z,17.38
2016-05-15T07:35:17.767Z,17.89
2016-05-15T07:36:17.769Z,18.41
2016-05-15T07:37:17.789Z,19
2016-05-15T07:38:17.791Z,19.54
2016-05-15T07:39:17.814Z,19.88
2016-05-15T07:40:17.860Z,20.2
2016-05-15T07:41:17.907Z,20.38
2016-05-15T07:42:17.952Z,20.54
2016-05-15T07:43:18.013Z,20.64
2016-05-15T07:44:18.078Z,20.87
2016-05-15T07:45:18.081Z,20.8
2016-05-15T07:46:18.100Z,20.94
2016-05-15T07:47:18.118Z,21.1
2016-05-15T07:48:17.995Z,21.27
2016-05-15T07:49:18.165Z,21.44
2016-05-15T07:50:18.173Z,21.75
2016-05-15T07:51:18.025Z,21.86
2016-05-15T07:52:18.049Z,22
2016-05-15T07:53:26.698Z,22.02
2016-05-15T07:54:18.236Z,22.05
2016-05-15T07:55:18.771Z,21.9
2016-05-15T07:56:18.245Z,21.69
2016-05-15T07:57:18.092Z,21.47
2016-05-15T07:58:18.254Z,21.44
2016-05-15T07:59:18.117Z,21.53
2016-05-15T08:00:18.293Z,21.35
2016-05-15T08:01:18.296Z,21.34
2016-05-15T08:02:18.143Z,21.47
2016-05-15T08:03:18.147Z,21.59
2016-05-15T08:04:18.759Z,21.86
2016-05-15T08:05:18.325Z,22.06
2016-05-15T08:06:18.187Z,22.39
2016-05-15T08:07:20.019Z,22.65
2016-05-15T08:08:18.366Z,22.73
2016-05-15T08:09:18.383Z,22.76
2016-05-15T08:10:18.387Z,22.6
2016-05-15T08:11:18.874Z,22.46
2016-05-15T08:12:18.407Z,22.15
2016-05-15T08:13:18.410Z,21.92
2016-05-15T08:14:32.601Z,21.59
2016-05-15T08:15:33.322Z,21.32
2016-05-15T08:16:18.949Z,21.24
2016-05-15T08:17:33.546Z,21.09
2016-05-15T08:18:20.158Z,20.97
2016-05-15T08:19:18.520Z,20.91
2016-05-15T08:20:18.710Z,20.97
2016-05-15T08:21:18.479Z,20.98
2016-05-15T08:22:18.544Z,20.87
2016-05-15T08:23:32.671Z,21.13
2016-05-15T08:24:18.503Z,21.32
2016-05-15T08:25:18.521Z,21.42
2016-05-15T08:26:18.367Z,21.47
2016-05-15T08:27:18.511Z,21.58
2016-05-15T08:28:18.528Z,21.47
2016-05-15T08:29:18.548Z,21.28
2016-05-15T08:30:18.394Z,21.21
2016-05-15T08:31:18.567Z,21.09
2016-05-15T08:32:18.555Z,20.73
2016-05-15T08:33:18.573Z,20.66
2016-05-15T08:34:18.436Z,20.69
2016-05-15T08:35:18.828Z,20.73
2016-05-15T08:36:18.598Z,20.67
2016-05-15T08:37:18.600Z,20.59
2016-05-15T08:38:18.618Z,20.62
2016-05-15T08:39:18.606Z,20.48
2016-05-15T08:40:18.639Z,20.31
2016-05-15T08:41:18.626Z,20.17
2016-05-15T08:42:18.644Z,20.24
2016-05-15T08:43:18.647Z,20.03
2016-05-15T08:44:18.650Z,19.81
2016-05-15T08:45:18.668Z,19.73
2016-05-15T08:46:18.671Z,19.5
2016-05-15T08:47:18.674Z,19.28
2016-05-15T08:48:18.676Z,19.04
2016-05-15T08:49:18.382Z,18.8
2016-05-15T08:50:18.682Z,18.76
2016-05-15T08:51:18.701Z,18.82
2016-05-15T08:52:18.718Z,18.88
2016-05-15T08:53:18.565Z,18.81
2016-05-15T08:54:18.567Z,18.82
2016-05-15T08:55:18.711Z,18.82
2016-05-15T08:56:18.714Z,18.8
2016-05-15T08:57:18.748Z,18.9
2016-05-15T08:58:18.734Z,18.81
2016-05-15T08:59:18.597Z,18.88
2016-05-15T09:00:18.740Z,18.75
2016-05-15T09:01:18.742Z,18.54
2016-05-15T09:02:18.745Z,18.48
2016-05-15T09:03:18.764Z,18.42
2016-05-15T09:04:18.625Z,18.45
2016-05-15T09:05:18.645Z,18.33
2016-05-15T09:06:18.459Z,18.32
2016-05-15T09:07:18.461Z,18.26
2016-05-15T09:08:18.621Z,18.25
2016-05-15T09:09:18.779Z,18.23
2016-05-15T09:10:18.626Z,18.08
2016-05-15T09:11:18.786Z,18.2
2016-05-15T09:12:18.788Z,18.21
2016-05-15T09:13:18.790Z,18.3
2016-05-15T09:14:18.794Z,18.37
2016-05-15T09:15:18.640Z,18.47
2016-05-15T09:16:18.813Z,18.47
2016-05-15T09:17:18.645Z,18.54
2016-05-15T09:18:18.820Z,18.44
2016-05-15T09:19:19.291Z,18.45
2016-05-15T09:20:18.996Z,18.45
2016-05-15T09:21:18.827Z,18.52
2016-05-15T09:22:18.814Z,18.57
2016-05-15T09:23:18.818Z,18.65
2016-05-15T09:24:18.820Z,18.8
2016-05-15T09:25:18.823Z,18.81
2016-05-15T09:26:19.107Z,18.82
2016-05-15T09:27:19.281Z,18.87
2016-05-15T09:28:18.675Z,18.9
2016-05-15T09:29:19.849Z,18.98
2016-05-15T09:30:18.836Z,18.94
2016-05-15T09:31:18.839Z,18.9
2016-05-15T09:32:18.982Z,18.81
2016-05-15T09:33:18.844Z,18.75
2016-05-15T09:34:20.284Z,18.44
2016-05-15T09:35:19.912Z,18.25
2016-05-15T09:36:20.430Z,18.12
2016-05-15T09:37:18.855Z,17.89
2016-05-15T09:38:19.045Z,17.66
2016-05-15T09:39:18.876Z,17.49
2016-05-15T09:40:19.597Z,17.34
2016-05-15T09:41:19.022Z,17.3
2016-05-15T09:42:19.244Z,17.12
2016-05-15T09:43:19.636Z,16.88
2016-05-15T09:44:19.436Z,16.73
2016-05-15T09:45:18.876Z,16.6
2016-05-15T09:46:19.583Z,16.38
2016-05-15T09:47:19.288Z,16.23
2016-05-15T09:48:18.885Z,16.14
2016-05-15T09:49:18.746Z,16.07
2016-05-15T09:50:19.249Z,15.75
2016-05-15T09:51:18.877Z,15.51
2016-05-15T09:52:18.880Z,15.31
2016-05-15T09:53:18.882Z,14.98
2016-05-15T09:54:18.885Z,14.69
2016-05-15T09:55:18.887Z,14.47
2016-05-15T09:56:18.890Z,14.18
2016-05-15T09:57:18.737Z,13.66
2016-05-15T09:58:18.723Z,13.26
2016-05-15T09:59:18.884Z,12.95
2016-05-15T10:00:18.886Z,12.79
2016-05-15T10:01:18.889Z,12.57
2016-05-15T10:02:18.875Z,12.38
2016-05-15T10:03:18.878Z,12.31
2016-05-15T10:04:19.240Z,12.37
2016-05-15T10:05:18.883Z,12.37
2016-05-15T10:06:18.870Z,12.37
2016-05-15T10:07:18.873Z,12.46
2016-05-15T10:08:18.876Z,12.56
2016-05-15T10:09:18.878Z,12.7
2016-05-15T10:10:18.865Z,12.85
2016-05-15T10:11:18.711Z,12.89
2016-05-15T10:12:18.872Z,13.05
2016-05-15T10:13:18.874Z,13.12
2016-05-15T10:14:18.860Z,13.28
2016-05-15T10:15:18.864Z,13.45
2016-05-15T10:16:18.866Z,13.64
2016-05-15T10:17:18.869Z,13.89
2016-05-15T10:18:18.871Z,14.12
2016-05-15T10:19:18.969Z,14.28
2016-05-15T10:20:18.861Z,14.54
2016-05-15T10:21:18.708Z,14.8
2016-05-15T10:22:18.866Z,14.91
2016-05-15T10:23:18.853Z,15.21
2016-05-15T10:24:18.857Z,15.35
2016-05-15T10:25:18.843Z,15.5
2016-05-15T10:26:18.862Z,15.76
2016-05-15T10:27:18.848Z,15.93
2016-05-15T10:28:18.929Z,16.02
2016-05-15T10:29:18.714Z,16.02
2016-05-15T10:30:18.857Z,16.11
2016-05-15T10:31:18.719Z,16.09
2016-05-15T10:32:18.862Z,16.05
2016-05-15T10:33:18.881Z,15.96
2016-05-15T10:34:18.712Z,15.92
2016-05-15T10:35:18.714Z,15.8
2016-05-15T10:36:18.857Z,15.71
2016-05-15T10:37:18.845Z,15.67
2016-05-15T10:38:18.848Z,15.51
2016-05-15T10:39:18.866Z,15.34
2016-05-15T10:40:18.852Z,15.29
2016-05-15T10:41:18.700Z,15.21
2016-05-15T10:42:18.842Z,15.21
2016-05-15T10:43:18.845Z,15.32
2016-05-15T10:45:18.850Z,15.5
2016-05-15T10:46:20.510Z,15.64
2016-05-15T10:47:19.419Z,15.72
2016-05-15T10:48:19.936Z,15.78
2016-05-15T10:49:18.721Z,15.84
2016-05-15T10:50:19.270Z,16.07
2016-05-15T10:51:19.102Z,16.07
2016-05-15T10:52:21.010Z,16.2
2016-05-15T10:53:19.012Z,16.31
2016-05-15T10:54:19.781Z,16.24
2016-05-15T10:55:19.298Z,16.31
2016-05-15T10:56:19.662Z,16.07
2016-05-15T10:57:18.851Z,15.78
2016-05-15T10:58:20.026Z,15.44
2016-05-15T10:59:18.856Z,14.96
2016-05-15T11:00:18.876Z,14.55
2016-05-15T11:01:19.362Z,14.25
2016-05-15T11:02:18.693Z,14.12
2016-05-15T11:03:18.695Z,14.04
2016-05-15T11:04:18.934Z,13.88
2016-05-15T11:05:18.856Z,13.71
2016-05-15T11:06:18.845Z,13.57
2016-05-15T11:07:18.847Z,13.6
2016-05-15T11:08:18.850Z,13.51
2016-05-15T11:09:18.836Z,13.54
2016-05-15T11:10:18.684Z,13.52
2016-05-15T11:11:18.686Z,13.42
2016-05-15T11:12:18.845Z,13.44
2016-05-15T11:13:18.847Z,13.32
2016-05-15T11:14:18.835Z,13.29
2016-05-15T11:15:18.680Z,13.3
2016-05-15T11:16:18.684Z,13.39
2016-05-15T11:17:18.843Z,13.46
2016-05-15T11:18:18.846Z,13.41
2016-05-15T11:19:19.082Z,13.45
2016-05-15T11:20:18.804Z,13.36
2016-05-15T11:21:18.838Z,13.29
2016-05-15T11:22:18.840Z,13.48
2016-05-15T11:23:18.843Z,13.38
2016-05-15T11:24:18.846Z,13.39
2016-05-15T11:25:18.832Z,13.33
2016-05-15T11:26:18.835Z,13.2
2016-05-15T11:27:18.838Z,13.19
2016-05-15T11:28:18.825Z,13.12
2016-05-15T11:29:18.671Z,13
2016-05-15T11:30:18.690Z,12.92
2016-05-15T11:31:18.834Z,12.82
2016-05-15T11:32:18.836Z,12.75
2016-05-15T11:33:18.839Z,12.79
2016-05-15T11:34:18.826Z,12.92
2016-05-15T11:35:18.673Z,12.93
2016-05-15T11:36:18.831Z,13
2016-05-15T11:37:18.850Z,13.08
2016-05-15T11:38:18.836Z,13.12
2016-05-15T11:39:18.823Z,13.11
2016-05-15T11:40:18.826Z,13.23
2016-05-15T11:41:18.814Z,13.23
2016-05-15T11:42:18.816Z,13.23
2016-05-15T11:43:19.022Z,13.36
2016-05-15T11:44:18.805Z,13.23
2016-05-15T11:45:18.809Z,13.29
2016-05-15T11:46:18.811Z,13.41
2016-05-15T11:47:18.814Z,13.36
2016-05-15T11:48:18.801Z,13.33
2016-05-15T11:49:19.116Z,13.26
2016-05-15T11:50:18.852Z,13.32
2016-05-15T11:51:18.794Z,13.36
2016-05-15T11:52:18.796Z,13.46
2016-05-15T11:53:18.643Z,13.54
2016-05-15T11:54:18.848Z,13.64
2016-05-15T11:55:18.788Z,13.73
2016-05-15T11:56:18.993Z,13.87
2016-05-15T11:57:18.794Z,14.02
2016-05-15T11:58:18.797Z,14.21
2016-05-15T11:59:18.784Z,14.37
2016-05-15T12:00:18.786Z,14.61
2016-05-15T12:01:18.789Z,14.84
2016-05-15T12:02:18.792Z,15.03
2016-05-15T12:04:19.407Z,15.27
2016-05-15T12:05:21.612Z,15.36
2016-05-15T12:06:19.787Z,15.57
2016-05-15T12:07:19.398Z,15.62
2016-05-15T12:08:19.417Z,15.64
2016-05-15T12:09:19.295Z,15.68
2016-05-15T12:10:19.032Z,15.59
2016-05-15T12:11:33.566Z,15.64
2016-05-15T12:12:34.022Z,15.76
2016-05-15T12:13:19.556Z,15.76
2016-05-15T12:14:21.059Z,15.89
2016-05-15T12:15:20.186Z,16.02
2016-05-15T12:16:19.017Z,16
2016-05-15T12:17:19.644Z,15.96
2016-05-15T12:18:19.053Z,15.9
2016-05-15T12:19:18.993Z,15.86
2016-05-15T12:20:18.793Z,15.74
2016-05-15T12:21:33.203Z,15.59
2016-05-15T12:22:18.783Z,15.67
2016-05-15T12:23:18.771Z,15.76
2016-05-15T12:24:18.773Z,15.93
2016-05-15T12:25:18.776Z,16.05
2016-05-15T12:26:18.762Z,16.14
2016-05-15T12:27:18.782Z,16.2
2016-05-15T12:28:18.768Z,16.24
2016-05-15T12:29:18.771Z,16.27
2016-05-15T12:30:18.773Z,16.42
2016-05-15T12:31:18.792Z,16.41
2016-05-15T12:32:18.623Z,16.52
2016-05-15T12:33:18.782Z,16.5
2016-05-15T12:34:18.768Z,16.5
2016-05-15T12:35:19.053Z,16.43
2016-05-15T12:36:18.617Z,16.35
2016-05-15T12:37:18.776Z,16.14
2016-05-15T12:38:18.779Z,16
2016-05-15T12:39:18.767Z,15.78
2016-05-15T12:40:18.613Z,15.53
2016-05-15T12:41:18.772Z,15.44
2016-05-15T12:42:18.775Z,15.41
2016-05-15T12:43:18.777Z,15.47
2016-05-15T12:44:18.452Z,15.39
2016-05-15T12:45:18.610Z,15.46
2016-05-15T12:46:18.770Z,15.46
2016-05-15T12:47:18.772Z,15.41
2016-05-15T12:48:18.775Z,15.47
2016-05-15T12:49:18.622Z,15.38
2016-05-15T12:50:18.764Z,15.38
2016-05-15T12:51:18.767Z,15.28
2016-05-15T12:52:18.613Z,15.23
2016-05-15T12:53:18.772Z,15.14
2016-05-15T12:54:18.775Z,15.09
2016-05-15T12:55:18.763Z,14.99
2016-05-15T12:56:18.780Z,15.01
2016-05-15T12:57:18.752Z,14.98
2016-05-15T12:58:18.599Z,14.98
2016-05-15T12:59:18.758Z,14.8
2016-05-15T13:00:18.604Z,14.84
2016-05-15T13:01:18.607Z,14.84
2016-05-15T13:02:18.750Z,14.69
2016-05-15T13:03:18.596Z,14.68
2016-05-15T13:04:18.755Z,14.58
2016-05-15T13:05:18.790Z,14.62
2016-05-15T13:06:18.620Z,14.47
2016-05-15T13:07:18.764Z,14.51
2016-05-15T13:08:18.750Z,14.45
2016-05-15T13:09:18.753Z,14.37
2016-05-15T13:10:18.755Z,14.52
2016-05-15T13:11:18.742Z,14.68
2016-05-15T13:12:18.746Z,14.73